Odenburg, Louisiana
Current Conditions -  °F | °C
As of 1:15 PM on Friday 21 Nov 2014 (Local Time) from KHZR Reporting Station
Broken Clouds Broken Clouds  
Wind Chill: 22°   Ceiling: 9000
Heat Index: 22°   Visibility: 10mi
Dew Point:   Wind: 8mph
Humidity: 39%   Direction: 110°ESE
Pressure: 30.22"   Gusts: 22mph
Location:  30.9317°N, 91.8606°W
Report Text: KHZR 211915Z AUTO 11007G19KT 10SM BKN090 22/07 A3022 RMK AO2 T02170070
Loading
Personal Weather Stations






























Interactive Weather Map New forecast layout! Learn more

10-Day Weather Forecast

Advertisements
Track Severe Weather on mobile